ENHD/HAU METAR and TAF weather

Enter ICAO airport designator
Station Type Date Time Source
ENHD METAR 2019/10/18 05:50 UTC NOAA

ENHD 180550Z 11008KT 9999 FEW045 08/06 Q1003


Station Type Date Time Source
ENHD Decoded METAR 2019/10/18 05:50 UTC NOAA

Haugesund / Karmoy, Norway (ENHD) 59-21N 005-13E 24M
Oct 18, 2019 - 01:50 AM EDT / 2019.10.18 0550 UTC
Wind: from the ESE (110 degrees) at 9 MPH (8 KT):0
Visibility: greater than 7 mile(s):0
Sky conditions: mostly clear
Temperature: 46 F (8 C)
Dew Point: 42 F (6 C)
Relative Humidity: 87%
Pressure (altimeter): 29.62 in. Hg (1003 hPa)
ob: ENHD 180550Z 11008KT 9999 FEW045 08/06 Q1003
cycle: 6

Station Type Date Time Source
ENHD TAF UTC NOAA

Error!

Example: see airport list